createdAt,value
2022-10-31T00:01:17.940Z,7.28
2022-10-31T00:03:44.689Z,9.75
2022-10-31T00:06:11.417Z,9.15
2022-10-31T00:08:38.300Z,8.77
2022-10-31T00:11:05.153Z,10.13
2022-10-31T00:13:32.410Z,6.20
2022-10-31T00:15:59.167Z,10.50
2022-10-31T00:18:25.926Z,10.23
2022-10-31T00:21:05.380Z,6.50
2022-10-31T00:23:33.553Z,9.80
2022-10-31T00:26:04.687Z,8.00
2022-10-31T00:28:33.100Z,11.07
2022-10-31T00:31:05.308Z,9.73
2022-10-31T00:33:35.005Z,6.68
2022-10-31T00:36:02.154Z,7.68
2022-10-31T00:38:28.889Z,15.90
2022-10-31T00:40:55.828Z,14.07
2022-10-31T00:43:22.566Z,13.13
2022-10-31T00:45:49.508Z,10.90
2022-10-31T00:48:16.453Z,10.25
2022-10-31T00:50:43.509Z,9.85
2022-10-31T00:53:10.242Z,8.80
2022-10-31T00:55:37.010Z,5.93
2022-10-31T00:58:04.071Z,7.32
2022-10-31T01:00:31.134Z,8.27
2022-10-31T01:02:58.260Z,8.27
2022-10-31T01:05:25.299Z,7.13
2022-10-31T01:07:52.089Z,8.32
2022-10-31T01:10:19.330Z,8.48
2022-10-31T01:12:48.935Z,9.60
2022-10-31T01:15:19.076Z,7.90
2022-10-31T01:20:14.739Z,10.27
2022-10-31T01:22:41.484Z,6.82
2022-10-31T01:25:10.109Z,7.85
2022-10-31T01:27:37.078Z,5.30
2022-10-31T01:30:04.874Z,7.43
2022-10-31T01:32:31.749Z,5.18
2022-10-31T01:34:58.442Z,6.50
2022-10-31T01:37:25.204Z,5.93
2022-10-31T01:39:51.951Z,7.20
2022-10-31T01:42:23.418Z,6.05
2022-10-31T01:44:57.411Z,8.10
2022-10-31T01:47:44.651Z,5.00
2022-10-31T01:50:16.466Z,10.05
2022-10-31T01:52:49.554Z,6.50
2022-10-31T01:55:26.506Z,9.85
2022-10-31T01:58:05.111Z,6.78
2022-10-31T02:00:32.163Z,9.75
2022-10-31T02:03:01.083Z,8.20
2022-10-31T02:05:31.400Z,6.70
2022-10-31T02:08:07.779Z,8.18
2022-10-31T02:10:36.888Z,8.88
2022-10-31T02:13:07.319Z,9.02
2022-10-31T02:15:34.671Z,9.68
2022-10-31T02:18:02.440Z,6.90
2022-10-31T02:20:37.004Z,6.78
2022-10-31T02:23:33.028Z,7.22
2022-10-31T02:26:08.879Z,9.38
2022-10-31T02:28:58.413Z,9.38
2022-10-31T02:31:47.868Z,7.45
2022-10-31T02:34:17.250Z,8.57
2022-10-31T02:37:06.921Z,9.15
2022-10-31T02:39:59.281Z,9.75
2022-10-31T02:42:37.765Z,8.00
2022-10-31T02:45:20.612Z,9.43
2022-10-31T02:47:50.351Z,6.83
2022-10-31T02:50:35.676Z,8.70
2022-10-31T02:53:03.251Z,9.53
2022-10-31T02:55:30.011Z,7.30
2022-10-31T02:58:12.774Z,9.18
2022-10-31T03:00:49.735Z,9.77
2022-10-31T03:03:57.315Z,9.60
2022-10-31T03:06:51.497Z,10.02
2022-10-31T03:09:33.186Z,7.80
2022-10-31T03:12:22.052Z,7.80
2022-10-31T03:15:00.544Z,6.40
2022-10-31T03:17:38.886Z,8.85
2022-10-31T03:20:10.382Z,5.95
2022-10-31T03:22:38.966Z,5.68
2022-10-31T03:25:06.969Z,7.25
2022-10-31T03:27:36.987Z,7.85
2022-10-31T03:30:06.544Z,7.50
2022-10-31T03:32:39.325Z,8.90
2022-10-31T03:35:08.819Z,8.55
2022-10-31T03:37:37.144Z,12.45
2022-10-31T03:40:07.590Z,10.77
2022-10-31T03:42:39.427Z,11.18
2022-10-31T03:45:13.796Z,13.48
2022-10-31T03:47:43.695Z,13.20
2022-10-31T03:50:14.502Z,12.65
2022-10-31T03:52:49.717Z,15.82
2022-10-31T03:55:45.936Z,17.02
2022-10-31T03:58:38.464Z,17.77
2022-10-31T04:01:08.317Z,17.48
2022-10-31T04:03:37.472Z,18.55
2022-10-31T04:06:09.279Z,19.13
2022-10-31T04:08:43.635Z,19.77
2022-10-31T04:11:14.712Z,20.60
2022-10-31T04:13:45.175Z,19.65
2022-10-31T04:16:16.897Z,19.92
2022-10-31T04:18:44.344Z,18.17
2022-10-31T04:21:11.065Z,19.50
2022-10-31T04:23:37.902Z,23.80
2022-10-31T04:26:04.943Z,18.55
2022-10-31T04:28:34.838Z,18.17
2022-10-31T04:31:01.958Z,16.40
2022-10-31T04:33:28.798Z,16.70
2022-10-31T04:35:55.523Z,16.20
2022-10-31T04:38:22.266Z,16.23
2022-10-31T04:40:49.062Z,17.00
2022-10-31T04:43:15.892Z,18.25
2022-10-31T04:45:42.660Z,15.50
2022-10-31T04:48:09.446Z,15.00
2022-10-31T04:50:36.248Z,14.65
2022-10-31T04:53:03.616Z,15.73
2022-10-31T04:55:30.924Z,15.52
2022-10-31T04:57:58.644Z,15.90
2022-10-31T05:00:26.283Z,13.70
2022-10-31T05:02:55.979Z,14.60
2022-10-31T05:05:25.907Z,13.77
2022-10-31T05:07:53.904Z,12.38
2022-10-31T05:10:23.451Z,10.98
2022-10-31T05:12:53.038Z,9.55
2022-10-31T05:15:21.887Z,8.88
2022-10-31T05:17:49.341Z,9.25
2022-10-31T05:20:18.091Z,8.70
2022-10-31T05:22:53.080Z,6.72
2022-10-31T05:25:22.308Z,4.40
2022-10-31T05:27:50.788Z,3.50
2022-10-31T05:30:21.326Z,3.08
2022-10-31T05:32:50.577Z,3.13
2022-10-31T05:35:21.319Z,3.10
2022-10-31T05:37:48.120Z,2.90
2022-10-31T05:40:16.428Z,3.42
2022-10-31T05:42:44.611Z,3.70
2022-10-31T05:45:16.574Z,3.90
2022-10-31T05:47:44.158Z,3.60
2022-10-31T05:50:11.377Z,3.30
2022-10-31T05:52:38.083Z,3.08
2022-10-31T05:55:05.242Z,3.90
2022-10-31T05:57:33.895Z,3.88
2022-10-31T06:00:00.740Z,5.00
2022-10-31T06:02:27.899Z,5.47
2022-10-31T06:04:55.032Z,8.85
2022-10-31T06:07:21.769Z,9.10
2022-10-31T06:09:48.553Z,8.68
2022-10-31T06:12:15.368Z,9.27
2022-10-31T06:14:42.075Z,9.80
2022-10-31T06:17:08.784Z,8.27
2022-10-31T06:19:37.101Z,7.53
2022-10-31T06:22:03.880Z,6.68
2022-10-31T06:24:31.970Z,6.00
2022-10-31T06:26:58.791Z,4.95
2022-10-31T06:29:25.497Z,3.92
2022-10-31T06:31:53.090Z,3.20
2022-10-31T06:34:19.990Z,3.10
2022-10-31T06:36:50.004Z,3.80
2022-10-31T06:41:43.538Z,6.88
2022-10-31T06:44:10.315Z,6.20
2022-10-31T06:46:37.042Z,6.25
2022-10-31T06:49:03.806Z,6.00
2022-10-31T06:51:30.518Z,11.60
2022-10-31T06:53:57.264Z,12.13
2022-10-31T06:56:24.145Z,11.20
2022-10-31T06:58:50.895Z,14.40
2022-10-31T07:01:17.777Z,12.60
2022-10-31T07:03:44.643Z,13.95
2022-10-31T07:06:11.369Z,15.50
2022-10-31T07:08:38.210Z,14.40
2022-10-31T07:11:05.160Z,14.68
2022-10-31T07:13:31.979Z,15.80
2022-10-31T07:16:04.019Z,14.52
2022-10-31T07:18:31.232Z,12.93
2022-10-31T07:20:58.085Z,13.20
2022-10-31T07:23:24.988Z,12.35
2022-10-31T07:25:57.206Z,10.45
2022-10-31T07:28:24.922Z,12.82
2022-10-31T07:30:57.014Z,9.30
2022-10-31T07:33:24.256Z,8.30
2022-10-31T07:35:50.969Z,9.30
2022-10-31T07:38:17.859Z,8.02
2022-10-31T07:40:44.685Z,7.13
2022-10-31T07:43:14.500Z,6.30
2022-10-31T07:48:08.372Z,6.05
2022-10-31T07:50:35.431Z,5.60
2022-10-31T07:53:04.898Z,5.28
2022-10-31T07:55:32.422Z,4.80
2022-10-31T07:58:01.206Z,5.13
2022-10-31T08:00:28.757Z,4.50
2022-10-31T08:03:00.752Z,4.65
2022-10-31T08:05:28.012Z,5.00
2022-10-31T08:07:54.915Z,5.32
2022-10-31T08:10:22.664Z,4.80
2022-10-31T08:12:59.572Z,4.50
2022-10-31T08:15:27.350Z,5.00
2022-10-31T08:17:54.684Z,4.65
2022-10-31T08:20:22.517Z,4.85
2022-10-31T08:23:04.372Z,5.40
2022-10-31T08:25:37.145Z,4.82
2022-10-31T08:28:07.192Z,5.55
2022-10-31T08:30:35.911Z,4.90
2022-10-31T08:33:07.863Z,4.78
2022-10-31T08:35:34.814Z,4.88
2022-10-31T08:38:02.898Z,5.05
2022-10-31T08:40:31.540Z,4.80
2022-10-31T08:43:01.855Z,6.10
2022-10-31T08:45:30.074Z,5.50
2022-10-31T08:48:08.553Z,6.40
2022-10-31T08:50:36.769Z,7.30
2022-10-31T08:53:29.749Z,6.20
2022-10-31T08:55:57.639Z,6.32
2022-10-31T08:58:25.949Z,4.03
2022-10-31T09:00:54.497Z,5.45
2022-10-31T09:03:25.283Z,6.10
2022-10-31T09:05:57.285Z,6.18
2022-10-31T09:08:24.540Z,4.65
2022-10-31T09:10:51.395Z,7.25
2022-10-31T09:13:20.812Z,4.90
2022-10-31T09:15:49.757Z,7.03
2022-10-31T09:18:20.036Z,6.72
2022-10-31T09:20:48.494Z,7.18
2022-10-31T09:23:20.950Z,9.18
2022-10-31T09:25:50.710Z,8.02
2022-10-31T09:30:48.754Z,9.30
2022-10-31T09:33:18.846Z,6.80
2022-10-31T09:38:17.948Z,7.65
2022-10-31T09:40:59.000Z,5.88
2022-10-31T09:43:53.288Z,9.80
2022-10-31T09:46:32.051Z,21.38
2022-10-31T09:49:26.141Z,6.25
2022-10-31T09:57:17.542Z,11.38
2022-10-31T09:59:48.071Z,12.48
2022-10-31T10:02:24.572Z,6.93
2022-10-31T10:05:11.076Z,12.18
2022-10-31T10:08:10.296Z,14.70
2022-10-31T10:10:56.445Z,10.05
2022-10-31T10:13:41.622Z,10.40
2022-10-31T10:16:43.530Z,11.73
2022-10-31T10:19:50.085Z,12.75
2022-10-31T10:22:48.912Z,14.20
2022-10-31T10:25:21.868Z,7.15
2022-10-31T10:27:48.783Z,8.70
2022-10-31T10:30:24.531Z,8.70
2022-10-31T10:33:09.496Z,9.00
2022-10-31T10:35:48.566Z,6.68
2022-10-31T10:38:18.508Z,14.20
2022-10-31T10:43:23.920Z,10.10
2022-10-31T10:46:46.360Z,13.57
2022-10-31T10:49:22.895Z,5.13
2022-10-31T10:52:41.708Z,9.63
2022-10-31T10:55:22.147Z,5.78
2022-10-31T10:57:58.199Z,8.87
2022-10-31T11:00:27.112Z,9.65
2022-10-31T11:02:54.536Z,15.67
2022-10-31T11:05:51.350Z,6.07
2022-10-31T11:08:29.426Z,12.60
2022-10-31T11:11:09.263Z,8.70
2022-10-31T11:13:37.753Z,11.18
2022-10-31T11:16:11.494Z,15.02
2022-10-31T11:18:41.402Z,10.07
2022-10-31T11:21:22.270Z,11.10
2022-10-31T11:23:48.977Z,12.15
2022-10-31T11:26:22.491Z,8.13
2022-10-31T11:29:00.098Z,8.10
2022-10-31T11:31:28.653Z,14.55
2022-10-31T11:34:02.861Z,14.73
2022-10-31T11:36:37.193Z,13.07
2022-10-31T11:39:05.801Z,15.45
2022-10-31T11:41:36.176Z,9.07
2022-10-31T11:44:06.528Z,15.88
2022-10-31T11:46:47.759Z,19.27
2022-10-31T11:49:38.423Z,20.25
2022-10-31T11:52:16.371Z,21.25
2022-10-31T11:54:55.132Z,22.70
2022-10-31T11:57:29.246Z,20.10
2022-10-31T11:59:58.898Z,25.38
2022-10-31T12:02:26.595Z,17.73
2022-10-31T12:05:09.839Z,25.80
2022-10-31T12:07:36.538Z,22.45
2022-10-31T12:10:11.553Z,19.75
2022-10-31T12:12:56.327Z,19.85
2022-10-31T12:15:33.337Z,27.60
2022-10-31T12:18:21.341Z,27.85
2022-10-31T12:21:09.498Z,15.98
2022-10-31T12:24:06.695Z,19.67
2022-10-31T12:26:40.389Z,23.73
2022-10-31T12:29:13.181Z,23.65
2022-10-31T12:31:46.609Z,23.25
2022-10-31T12:34:49.188Z,25.98
2022-10-31T12:37:34.657Z,21.70
2022-10-31T12:40:20.210Z,20.63
2022-10-31T12:42:54.890Z,19.33
2022-10-31T12:45:24.766Z,19.55
2022-10-31T12:47:54.545Z,23.85
2022-10-31T12:50:24.529Z,19.58
2022-10-31T12:55:42.777Z,19.23
2022-10-31T12:58:24.788Z,19.60
2022-10-31T13:01:10.693Z,19.55
2022-10-31T13:03:48.966Z,22.63
2022-10-31T13:06:21.304Z,21.30
2022-10-31T13:08:59.977Z,16.90
2022-10-31T13:11:33.500Z,13.68
2022-10-31T13:14:22.338Z,8.00
2022-10-31T13:16:50.000Z,16.83
2022-10-31T13:19:28.865Z,18.92
2022-10-31T13:21:58.301Z,16.40
2022-10-31T13:24:33.060Z,14.85
2022-10-31T13:27:04.168Z,14.52
2022-10-31T13:29:37.975Z,21.02
2022-10-31T13:32:08.645Z,15.27
2022-10-31T13:34:48.986Z,9.93
2022-10-31T13:37:18.389Z,17.30
2022-10-31T13:39:57.215Z,10.05
2022-10-31T13:42:45.168Z,9.52
2022-10-31T13:45:24.232Z,12.43
2022-10-31T13:48:00.570Z,15.63
2022-10-31T13:50:32.933Z,9.48
2022-10-31T13:53:17.686Z,12.13
2022-10-31T13:56:04.377Z,9.13
2022-10-31T13:58:32.740Z,13.63
2022-10-31T14:01:26.002Z,12.10
2022-10-31T14:04:25.608Z,12.40
2022-10-31T14:06:58.752Z,9.82
2022-10-31T14:09:27.490Z,17.48
2022-10-31T14:11:56.071Z,13.23
2022-10-31T14:14:29.181Z,7.25
2022-10-31T14:16:59.326Z,15.52
2022-10-31T14:19:29.867Z,11.95
2022-10-31T14:21:56.828Z,10.05
2022-10-31T14:24:26.539Z,12.50
2022-10-31T14:27:02.401Z,17.83
2022-10-31T14:29:31.670Z,7.15
2022-10-31T14:32:13.914Z,6.93
2022-10-31T14:34:59.143Z,7.93
2022-10-31T14:37:53.595Z,5.55
2022-10-31T14:40:57.481Z,11.68
2022-10-31T14:43:39.185Z,10.48
2022-10-31T14:46:18.363Z,16.00
2022-10-31T14:48:52.525Z,11.52
2022-10-31T14:51:22.061Z,12.13
2022-10-31T14:53:55.827Z,12.80
2022-10-31T14:56:31.555Z,12.50
2022-10-31T14:59:02.357Z,13.55
2022-10-31T15:01:35.996Z,10.75
2022-10-31T15:04:23.735Z,13.45
2022-10-31T15:07:01.451Z,10.93
2022-10-31T15:09:31.727Z,11.40
2022-10-31T15:12:17.880Z,11.48
2022-10-31T15:14:44.691Z,8.82
2022-10-31T15:17:13.160Z,7.75
2022-10-31T15:19:40.140Z,6.90
2022-10-31T15:22:07.198Z,13.18
2022-10-31T15:24:39.914Z,13.00
2022-10-31T15:27:13.759Z,11.32
2022-10-31T15:29:52.406Z,12.23
2022-10-31T15:32:27.805Z,12.20
2022-10-31T15:34:57.058Z,11.20
2022-10-31T15:37:26.165Z,10.50
2022-10-31T15:39:53.640Z,11.68
2022-10-31T15:42:36.529Z,8.45
2022-10-31T15:45:25.057Z,13.27
2022-10-31T15:47:59.595Z,7.68
2022-10-31T15:50:41.659Z,17.20
2022-10-31T15:53:21.943Z,11.30
2022-10-31T15:55:58.519Z,8.60
2022-10-31T15:58:26.286Z,8.88
2022-10-31T16:01:04.935Z,10.30
2022-10-31T16:03:33.859Z,12.38
2022-10-31T16:06:06.014Z,10.88
2022-10-31T16:08:36.962Z,8.45
2022-10-31T16:11:13.868Z,10.18
2022-10-31T16:14:08.770Z,12.73
2022-10-31T16:16:43.407Z,10.13
2022-10-31T16:19:21.716Z,13.35
2022-10-31T16:21:52.393Z,10.00
2022-10-31T16:24:30.016Z,14.07
2022-10-31T16:27:06.278Z,9.65
2022-10-31T16:29:47.620Z,12.80
2022-10-31T16:32:46.736Z,17.40
2022-10-31T16:35:13.373Z,11.48
2022-10-31T16:37:44.032Z,10.88
2022-10-31T16:40:12.966Z,13.45
2022-10-31T16:42:40.268Z,11.02
2022-10-31T16:45:08.597Z,13.70
2022-10-31T16:47:35.527Z,10.98
2022-10-31T16:50:02.312Z,10.27
2022-10-31T16:52:38.035Z,11.30
2022-10-31T16:55:20.853Z,13.35
2022-10-31T16:57:51.484Z,11.80
2022-10-31T17:00:22.470Z,17.20
2022-10-31T17:02:51.257Z,11.80
2022-10-31T17:05:19.709Z,14.88
2022-10-31T17:07:47.444Z,11.18
2022-10-31T17:10:15.752Z,11.27
2022-10-31T17:12:48.029Z,15.95
2022-10-31T17:15:27.018Z,14.20
2022-10-31T17:17:54.681Z,9.55
2022-10-31T17:20:27.184Z,9.20
2022-10-31T17:22:54.529Z,10.48
2022-10-31T17:25:27.684Z,11.75
2022-10-31T17:27:54.850Z,11.27
2022-10-31T17:30:22.603Z,12.00
2022-10-31T17:32:50.786Z,9.90
2022-10-31T17:35:18.570Z,10.25
2022-10-31T17:37:46.604Z,13.85
2022-10-31T17:40:16.580Z,16.17
2022-10-31T17:42:48.963Z,13.20
2022-10-31T17:45:15.719Z,15.95
2022-10-31T17:47:42.431Z,13.23
2022-10-31T17:50:09.615Z,12.98
2022-10-31T17:52:36.328Z,21.48
2022-10-31T17:55:03.012Z,19.88
2022-10-31T17:57:34.499Z,19.88
2022-10-31T18:00:02.272Z,17.13
2022-10-31T18:02:29.077Z,14.35
2022-10-31T18:04:55.924Z,13.82
2022-10-31T18:07:23.014Z,17.20
2022-10-31T18:09:49.902Z,23.02
2022-10-31T18:12:16.935Z,15.48
2022-10-31T18:14:48.341Z,20.60
2022-10-31T18:17:15.488Z,22.92
2022-10-31T18:19:42.350Z,24.95
2022-10-31T18:22:09.356Z,16.10
2022-10-31T18:24:36.032Z,15.65
2022-10-31T18:27:02.873Z,18.90
2022-10-31T18:29:29.573Z,26.10
2022-10-31T18:31:56.362Z,23.52
2022-10-31T18:34:23.317Z,19.77
2022-10-31T18:36:50.124Z,19.50
2022-10-31T18:39:17.125Z,19.05
2022-10-31T18:41:44.010Z,16.65
2022-10-31T18:44:10.863Z,16.42
2022-10-31T18:46:37.645Z,11.82
2022-10-31T18:49:06.448Z,18.65
2022-10-31T18:51:33.433Z,16.50
2022-10-31T18:54:01.612Z,14.80
2022-10-31T18:56:31.812Z,19.25
2022-10-31T18:59:04.734Z,13.48
2022-10-31T19:01:31.954Z,18.30
2022-10-31T19:03:59.977Z,14.07
2022-10-31T19:06:27.859Z,13.65
2022-10-31T19:09:14.838Z,16.48
2022-10-31T19:11:41.529Z,12.55
2022-10-31T19:14:08.627Z,19.42
2022-10-31T19:16:35.990Z,13.75
2022-10-31T19:19:02.900Z,16.75
2022-10-31T19:21:31.237Z,14.70
2022-10-31T19:23:59.354Z,16.67
2022-10-31T19:26:27.185Z,15.10
2022-10-31T19:28:56.353Z,12.00
2022-10-31T19:31:23.587Z,11.03
2022-10-31T19:33:50.697Z,22.65
2022-10-31T19:36:19.041Z,11.18
2022-10-31T19:38:48.641Z,21.23
2022-10-31T19:41:21.905Z,13.43
2022-10-31T19:43:49.374Z,18.15
2022-10-31T19:46:27.804Z,10.57
2022-10-31T19:49:04.587Z,22.05
2022-10-31T19:51:31.369Z,17.13
2022-10-31T19:53:58.032Z,17.25
2022-10-31T19:56:26.255Z,14.85
2022-10-31T19:58:53.187Z,18.83
2022-10-31T20:01:24.089Z,21.98
2022-10-31T20:03:51.513Z,19.10
2022-10-31T20:06:27.675Z,17.20
2022-10-31T20:08:58.736Z,18.67
2022-10-31T20:11:27.027Z,13.85
2022-10-31T20:13:58.191Z,24.73
2022-10-31T20:16:26.320Z,16.75
2022-10-31T20:18:53.736Z,22.17
2022-10-31T20:21:23.387Z,16.27
2022-10-31T20:23:50.339Z,31.73
2022-10-31T20:26:19.450Z,15.50
2022-10-31T20:28:46.871Z,18.85
2022-10-31T20:31:21.815Z,34.53
2022-10-31T20:33:49.421Z,18.95
2022-10-31T20:36:19.711Z,20.05
2022-10-31T20:38:47.344Z,14.63
2022-10-31T20:41:15.269Z,25.77
2022-10-31T20:43:42.303Z,12.85
2022-10-31T20:46:14.625Z,12.20
2022-10-31T20:48:41.789Z,13.55
2022-10-31T20:51:13.312Z,15.40
2022-10-31T20:53:40.149Z,11.88
2022-10-31T20:56:09.658Z,16.98
2022-10-31T20:58:38.051Z,14.40
2022-10-31T21:01:08.376Z,12.65
2022-10-31T21:03:36.686Z,11.98
2022-10-31T21:06:04.894Z,16.48
2022-10-31T21:08:33.051Z,13.52
2022-10-31T21:11:00.661Z,17.52
2022-10-31T21:13:31.883Z,16.67
2022-10-31T21:16:02.911Z,15.13
2022-10-31T21:18:31.033Z,14.93
2022-10-31T21:20:58.187Z,15.23
2022-10-31T21:23:25.175Z,18.17
2022-10-31T21:25:52.800Z,18.23
2022-10-31T21:28:19.524Z,16.67
2022-10-31T21:30:51.777Z,13.45
2022-10-31T21:33:19.150Z,25.17
2022-10-31T21:35:51.164Z,13.20
2022-10-31T21:38:18.643Z,17.13
2022-10-31T21:40:45.585Z,10.40
2022-10-31T21:43:12.447Z,14.32
2022-10-31T21:45:39.214Z,12.93
2022-10-31T21:48:06.312Z,18.88
2022-10-31T21:50:34.642Z,18.85
2022-10-31T21:53:21.407Z,17.23
2022-10-31T21:55:48.271Z,26.13
2022-10-31T21:58:14.988Z,16.70
2022-10-31T22:00:41.708Z,15.82
2022-10-31T22:03:08.480Z,23.20
2022-10-31T22:05:35.211Z,24.90
2022-10-31T22:08:02.405Z,20.10
2022-10-31T22:10:29.612Z,17.10
2022-10-31T22:12:56.687Z,18.27
2022-10-31T22:15:24.344Z,16.80
2022-10-31T22:17:51.289Z,19.67
2022-10-31T22:20:19.123Z,16.20
2022-10-31T22:22:47.247Z,22.40
2022-10-31T22:25:14.110Z,22.67
2022-10-31T22:27:41.895Z,14.43
2022-10-31T22:30:09.398Z,19.57
2022-10-31T22:32:36.205Z,16.47
2022-10-31T22:35:02.980Z,18.17
2022-10-31T22:37:29.691Z,18.60
2022-10-31T22:39:56.571Z,19.33
2022-10-31T22:42:23.267Z,17.90
2022-10-31T22:44:49.993Z,25.47
2022-10-31T22:47:16.886Z,15.87
2022-10-31T22:49:44.009Z,27.50
2022-10-31T22:52:10.774Z,24.60
2022-10-31T22:54:37.545Z,28.20
2022-10-31T22:57:04.307Z,25.30
2022-10-31T22:59:31.055Z,28.88
2022-10-31T23:01:58.131Z,33.58
2022-10-31T23:04:24.939Z,23.03
2022-10-31T23:06:51.671Z,21.00
2022-10-31T23:09:18.772Z,20.48
2022-10-31T23:11:46.186Z,19.50
2022-10-31T23:14:18.832Z,32.07
2022-10-31T23:16:46.685Z,32.60
2022-10-31T23:19:20.677Z,24.23
2022-10-31T23:21:56.571Z,17.88
2022-10-31T23:24:44.512Z,21.55
2022-10-31T23:27:20.537Z,18.23
2022-10-31T23:29:58.369Z,17.17
2022-10-31T23:32:32.690Z,20.70
2022-10-31T23:35:01.764Z,16.23
2022-10-31T23:37:31.317Z,27.42
2022-10-31T23:39:58.658Z,17.02
2022-10-31T23:42:26.919Z,19.70
2022-10-31T23:44:53.899Z,21.40
2022-10-31T23:47:21.110Z,16.53
2022-10-31T23:49:47.991Z,16.00
2022-10-31T23:52:16.000Z,24.67
2022-10-31T23:54:43.168Z,20.67
2022-10-31T23:57:14.221Z,29.67
2022-10-31T23:59:41.794Z,23.43
